South Chelmsford, Massachusetts
Current Conditions -  °F | °C
As of 8:56 AM on Friday 28 Nov 2014 (Local Time) from KBED Reporting Station
Overcast Overcast  
Wind Chill: 21°   Ceiling: 8000
Heat Index: 28°   Visibility: 10mi
Dew Point: 24°   Wind: 7mph
Humidity: 85%   Direction: 320°NW
Pressure: 30.05"   Gusts: NA
Location:  42.5915°N, 71.3555°W
Report Text: KBED 281356Z 32006KT 10SM FEW012 OVC080 M02/M04 A3005 RMK AO2 SNE07 SLP194 P0000 T10221044
Loading
Personal Weather Stations






























Interactive Weather Map New forecast layout! Learn more

10-Day Weather Forecast

Advertisements
Track Severe Weather on mobile